Time;durP1;ratioP1;P1;durP2;ratioP2;P2;SDS_P1;SDS_P2;PMS_P1;PMS_P2;Temp;Humidity;BMP_temperature;BMP_pressure;BME280_temperature;BME280_humidity;BME280_pressure;Samples;Min_cycle;Max_cycle;Signal;HPM_P1;HPM_P2
2022/09/08 00:00:38;;;;;;;2.25;0.80;;;;;;;;;;5004760;28;20102;-80
2022/09/08 00:03:04;;;;;;;5.45;1.20;;;;;;;;;;5004295;28;20078;-80
2022/09/08 00:05:30;;;;;;;1.95;1.00;;;;;;;;;;5020329;28;20469;-79
2022/09/08 00:07:55;;;;;;;3.55;1.30;;;;;;;;;;5037156;28;20040;-79
2022/09/08 00:10:22;;;;;;;1.92;0.82;;;;;;;;;;5004287;28;20470;-79
2022/09/08 00:12:48;;;;;;;3.22;1.08;;;;;;;;;;5004902;28;20037;-80
2022/09/08 00:15:13;;;;;;;3.97;0.90;;;;;;;;;;5020681;28;20029;-79
2022/09/08 00:17:39;;;;;;;3.50;0.85;;;;;;;;;;5020439;28;20060;-79
2022/09/08 00:20:06;;;;;;;3.17;1.05;;;;;;;;;;5020092;28;20036;-79
2022/09/08 00:22:31;;;;;;;2.20;0.98;;;;;;;;;;5003940;28;20112;-79
2022/09/08 00:24:57;;;;;;;2.00;0.90;;;;;;;;;;5020324;28;20427;-79
2022/09/08 00:27:22;;;;;;;1.80;0.80;;;;;;;;;;5020125;28;20091;-79
2022/09/08 00:29:48;;;;;;;1.70;0.80;;;;;;;;;;5020338;28;20032;-79
2022/09/08 00:32:13;;;;;;;2.28;0.70;;;;;;;;;;5020237;28;20403;-79
2022/09/08 00:34:39;;;;;;;2.13;1.08;;;;;;;;;;5019367;28;20037;-79
2022/09/08 00:37:04;;;;;;;1.65;0.60;;;;;;;;;;5004179;28;20418;-79
2022/09/08 00:39:29;;;;;;;3.90;1.05;;;;;;;;;;5019963;28;20040;-79
2022/09/08 00:41:55;;;;;;;3.03;0.90;;;;;;;;;;5004001;28;20037;-79
2022/09/08 00:44:39;;;;;;;2.63;0.98;;;;;;;;;;5003479;28;20037;-79
2022/09/08 00:47:13;;;;;;;2.60;1.10;;;;;;;;;;5020341;28;20048;-80
2022/09/08 00:49:39;;;;;;;2.70;1.13;;;;;;;;;;5020693;28;20044;-79
2022/09/08 00:52:04;;;;;;;2.17;0.65;;;;;;;;;;5020102;28;20127;-80
2022/09/08 00:54:30;;;;;;;2.00;0.88;;;;;;;;;;5003372;28;20114;-79
2022/09/08 00:56:55;;;;;;;2.08;0.70;;;;;;;;;;5019862;28;20045;-79
2022/09/08 00:59:22;;;;;;;2.50;0.80;;;;;;;;;;5003154;28;20434;-79
2022/09/08 01:01:48;;;;;;;2.65;0.77;;;;;;;;;;5019716;28;20141;-79
2022/09/08 01:04:14;;;;;;;2.35;0.88;;;;;;;;;;5017728;28;20032;-79
2022/09/08 01:12:52;;;;;;;4.75;1.30;;;;;;;;;;5027251;28;20048;-79
2022/09/08 01:15:19;;;;;;;2.95;0.98;;;;;;;;;;4986725;28;20063;-79
2022/09/08 01:17:47;;;;;;;3.42;0.95;;;;;;;;;;5003267;28;20037;-80
2022/09/08 01:20:12;;;;;;;3.50;1.05;;;;;;;;;;5019883;28;20040;-79
2022/09/08 01:22:56;;;;;;;2.90;0.93;;;;;;;;;;5019005;28;20025;-79
2022/09/08 01:25:57;;;;;;;3.20;0.82;;;;;;;;;;5019161;28;20033;-80
2022/09/08 01:28:28;;;;;;;2.22;0.95;;;;;;;;;;5035786;28;20032;-79
2022/09/08 01:30:54;;;;;;;3.08;1.20;;;;;;;;;;4987073;28;20498;-79
2022/09/08 01:33:20;;;;;;;3.55;0.95;;;;;;;;;;5002705;28;20120;-79
2022/09/08 01:35:45;;;;;;;5.82;1.15;;;;;;;;;;5002614;28;20033;-79
2022/09/08 01:38:11;;;;;;;2.17;0.98;;;;;;;;;;5019288;28;20124;-79
2022/09/08 01:40:38;;;;;;;3.42;1.13;;;;;;;;;;5002563;28;20410;-79
2022/09/08 01:43:06;;;;;;;2.05;0.82;;;;;;;;;;5019249;28;20037;-79
2022/09/08 01:45:32;;;;;;;3.75;1.13;;;;;;;;;;5002403;28;20071;-79
2022/09/08 01:47:57;;;;;;;3.13;0.88;;;;;;;;;;5018352;28;20086;-79
2022/09/08 01:50:23;;;;;;;3.85;0.98;;;;;;;;;;5018773;28;20033;-79
2022/09/08 01:52:49;;;;;;;4.03;1.20;;;;;;;;;;5002382;28;20128;-79
2022/09/08 01:55:14;;;;;;;3.33;0.93;;;;;;;;;;5002834;28;20755;-79
2022/09/08 01:57:39;;;;;;;3.47;1.10;;;;;;;;;;5018783;28;20407;-79
2022/09/08 02:00:06;;;;;;;1.92;0.80;;;;;;;;;;5002246;28;20037;-79
2022/09/08 02:02:31;;;;;;;2.30;0.80;;;;;;;;;;5018058;28;20033;-79
2022/09/08 02:04:57;;;;;;;2.80;1.17;;;;;;;;;;5018108;28;20411;-79
2022/09/08 02:07:22;;;;;;;3.60;0.77;;;;;;;;;;4986222;28;20068;-79
2022/09/08 02:09:48;;;;;;;2.67;0.95;;;;;;;;;;5002151;28;20032;-79
2022/09/08 02:12:13;;;;;;;2.58;0.73;;;;;;;;;;5001778;28;20063;-79
2022/09/08 02:14:39;;;;;;;3.03;0.63;;;;;;;;;;5001826;28;20037;-79
2022/09/08 02:17:04;;;;;;;2.75;0.82;;;;;;;;;;5034581;28;20045;-79
2022/09/08 02:19:30;;;;;;;1.70;0.50;;;;;;;;;;5018451;28;20059;-80
2022/09/08 02:21:55;;;;;;;1.65;0.52;;;;;;;;;;5001809;28;20096;-79
2022/09/08 02:24:21;;;;;;;3.58;0.95;;;;;;;;;;5001684;28;20380;-80
2022/09/08 02:26:46;;;;;;;1.90;0.43;;;;;;;;;;5001918;28;20128;-80
2022/09/08 02:29:12;;;;;;;1.45;0.50;;;;;;;;;;5001745;28;20048;-79
2022/09/08 02:31:37;;;;;;;2.88;0.73;;;;;;;;;;5017684;28;20400;-80
2022/09/08 02:34:03;;;;;;;1.52;0.70;;;;;;;;;;5001640;28;20048;-81
2022/09/08 02:36:29;;;;;;;3.20;0.63;;;;;;;;;;5001480;28;20036;-80
2022/09/08 02:38:54;;;;;;;4.22;0.80;;;;;;;;;;5017978;28;20110;-80
2022/09/08 02:41:21;;;;;;;2.15;0.60;;;;;;;;;;5017833;28;20037;-81
2022/09/08 02:43:46;;;;;;;3.53;1.00;;;;;;;;;;4985419;28;20133;-81
2022/09/08 02:46:11;;;;;;;2.40;0.40;;;;;;;;;;5001654;28;20491;-81
2022/09/08 02:48:37;;;;;;;2.22;0.65;;;;;;;;;;5017800;28;20078;-81
2022/09/08 02:51:04;;;;;;;2.22;0.98;;;;;;;;;;5017479;28;20044;-81
2022/09/08 02:53:30;;;;;;;2.55;0.40;;;;;;;;;;5001493;28;20044;-81
2022/09/08 02:55:56;;;;;;;1.98;0.73;;;;;;;;;;5001037;28;20095;-82
2022/09/08 02:58:21;;;;;;;2.22;0.85;;;;;;;;;;4985130;28;20104;-82
2022/09/08 03:00:46;;;;;;;1.23;0.30;;;;;;;;;;5001110;28;20510;-82
2022/09/08 03:03:13;;;;;;;2.13;0.63;;;;;;;;;;5017149;28;20033;-81
2022/09/08 03:05:39;;;;;;;2.63;0.82;;;;;;;;;;5001134;28;20037;-81
2022/09/08 03:08:05;;;;;;;3.33;0.80;;;;;;;;;;4985268;28;20057;-82
2022/09/08 03:10:32;;;;;;;2.20;1.02;;;;;;;;;;4984927;28;20037;-83
2022/09/08 03:12:57;;;;;;;3.53;0.95;;;;;;;;;;5000852;28;20041;-83
2022/09/08 03:15:24;;;;;;;4.35;0.80;;;;;;;;;;5016779;28;20033;-82
2022/09/08 03:17:50;;;;;;;2.60;0.40;;;;;;;;;;4984583;28;20029;-83
2022/09/08 03:20:16;;;;;;;2.75;0.70;;;;;;;;;;5000981;28;20465;-82
2022/09/08 03:22:41;;;;;;;3.05;0.88;;;;;;;;;;4984195;28;20021;-82
2022/09/08 03:25:07;;;;;;;1.52;0.55;;;;;;;;;;5000770;28;20033;-84
2022/09/08 03:27:35;;;;;;;1.75;0.40;;;;;;;;;;5017144;28;20032;-84
2022/09/08 03:30:01;;;;;;;2.78;0.90;;;;;;;;;;5001007;28;20041;-86
2022/09/08 03:32:28;;;;;;;1.90;0.57;;;;;;;;;;5000918;28;20123;-85
2022/09/08 03:34:53;;;;;;;3.38;0.70;;;;;;;;;;5001263;28;20044;-84
2022/09/08 03:37:19;;;;;;;2.15;0.50;;;;;;;;;;5016984;28;20037;-84
2022/09/08 03:39:48;;;;;;;4.55;1.17;;;;;;;;;;5000705;28;20060;-84
2022/09/08 03:42:17;;;;;;;3.30;0.73;;;;;;;;;;5017224;28;20044;-83
2022/09/08 03:44:43;;;;;;;2.25;0.50;;;;;;;;;;5016736;28;20044;-83
2022/09/08 03:47:08;;;;;;;2.53;0.52;;;;;;;;;;5000733;28;20495;-84
2022/09/08 03:49:35;;;;;;;2.70;0.73;;;;;;;;;;5000577;28;20040;-85
2022/09/08 03:52:01;;;;;;;4.47;0.93;;;;;;;;;;5000675;28;20194;-84
2022/09/08 03:57:13;;;;;;;3.03;0.60;;;;;;;;;;5003785;28;20033;-84
2022/09/08 03:59:40;;;;;;;1.20;0.65;;;;;;;;;;4999462;28;20037;-84
2022/09/08 04:02:06;;;;;;;3.25;0.70;;;;;;;;;;5016299;28;20033;-84
2022/09/08 04:04:31;;;;;;;2.50;0.80;;;;;;;;;;5000396;28;20082;-84
2022/09/08 04:06:57;;;;;;;2.38;0.50;;;;;;;;;;5000430;28;20491;-83
2022/09/08 04:09:22;;;;;;;1.75;0.60;;;;;;;;;;4983925;28;20392;-83
2022/09/08 04:11:48;;;;;;;2.03;0.30;;;;;;;;;;5031077;28;20041;-83
2022/09/08 04:14:14;;;;;;;4.60;0.70;;;;;;;;;;5015986;28;20040;-83
2022/09/08 04:16:40;;;;;;;3.13;0.82;;;;;;;;;;4999806;28;20120;-83
2022/09/08 04:19:06;;;;;;;2.10;0.75;;;;;;;;;;5016102;28;20124;-83
2022/09/08 04:21:31;;;;;;;2.65;0.88;;;;;;;;;;4984342;28;20487;-83
2022/09/08 04:23:59;;;;;;;3.25;0.88;;;;;;;;;;4983628;28;20123;-82
2022/09/08 04:26:24;;;;;;;1.85;0.85;;;;;;;;;;5000374;28;20120;-83
2022/09/08 04:28:50;;;;;;;2.58;0.80;;;;;;;;;;5016903;28;20045;-83
2022/09/08 04:31:15;;;;;;;1.73;0.60;;;;;;;;;;5016589;28;20087;-83
2022/09/08 04:33:41;;;;;;;3.05;0.68;;;;;;;;;;4999868;28;20549;-83
2022/09/08 04:36:17;;;;;;;2.80;0.60;;;;;;;;;;5000869;28;20036;-83
2022/09/08 04:38:43;;;;;;;1.67;0.52;;;;;;;;;;5001689;28;20028;-83
2022/09/08 04:41:11;;;;;;;2.10;0.57;;;;;;;;;;5003328;28;20028;-83
2022/09/08 04:43:37;;;;;;;1.73;0.65;;;;;;;;;;4987771;28;20033;-82
2022/09/08 04:46:03;;;;;;;2.20;0.57;;;;;;;;;;5003498;28;20036;-82
2022/09/08 04:48:31;;;;;;;3.10;0.75;;;;;;;;;;5003764;28;20037;-83
2022/09/08 04:51:00;;;;;;;1.73;0.40;;;;;;;;;;5003671;28;20033;-83
2022/09/08 04:53:27;;;;;;;1.70;0.35;;;;;;;;;;5019774;28;20484;-83
2022/09/08 04:55:53;;;;;;;1.10;0.40;;;;;;;;;;5019783;28;20033;-83
2022/09/08 04:58:19;;;;;;;3.08;0.70;;;;;;;;;;5003399;28;20040;-83
2022/09/08 05:00:45;;;;;;;1.30;0.40;;;;;;;;;;4987519;28;20036;-82
2022/09/08 05:03:10;;;;;;;1.67;0.45;;;;;;;;;;5019520;28;20056;-83
2022/09/08 05:05:36;;;;;;;2.50;0.57;;;;;;;;;;5003244;28;20398;-82
2022/09/08 05:08:02;;;;;;;2.55;0.70;;;;;;;;;;5003462;28;20403;-82
2022/09/08 05:10:27;;;;;;;2.45;0.40;;;;;;;;;;5002852;28;20056;-85
2022/09/08 05:12:54;;;;;;;1.75;0.50;;;;;;;;;;5003130;28;20063;-83
2022/09/08 05:15:19;;;;;;;1.65;0.32;;;;;;;;;;4987183;28;20037;-83
2022/09/08 05:17:45;;;;;;;2.08;0.60;;;;;;;;;;5000734;28;20168;-86
2022/09/08 05:20:12;;;;;;;0.98;0.40;;;;;;;;;;5001133;28;20041;-90
2022/09/08 05:22:40;;;;;;;0.90;0.40;;;;;;;;;;4988471;28;20040;-92
2022/09/08 05:25:07;;;;;;;2.65;0.50;;;;;;;;;;5020329;28;20548;-91
2022/09/08 05:27:36;;;;;;;3.60;0.63;;;;;;;;;;5020678;28;20033;-90
2022/09/08 05:30:03;;;;;;;1.75;0.40;;;;;;;;;;5020761;28;20040;-89
2022/09/08 05:32:29;;;;;;;2.33;0.50;;;;;;;;;;5003972;28;20399;-89
2022/09/08 05:34:56;;;;;;;2.33;0.63;;;;;;;;;;5003895;28;20032;-86
2022/09/08 05:37:26;;;;;;;3.08;0.52;;;;;;;;;;5019680;28;20025;-88
2022/09/08 05:39:54;;;;;;;1.48;0.20;;;;;;;;;;5000732;28;20076;-87
2022/09/08 05:42:21;;;;;;;3.22;0.65;;;;;;;;;;4984298;28;20136;-87
2022/09/08 05:44:47;;;;;;;2.75;0.38;;;;;;;;;;5000054;28;20040;-88
2022/09/08 05:47:13;;;;;;;2.63;0.68;;;;;;;;;;5016472;28;20033;-87
2022/09/08 05:49:40;;;;;;;1.40;0.45;;;;;;;;;;5016126;28;20037;-88
2022/09/08 05:52:08;;;;;;;1.33;0.47;;;;;;;;;;5004104;28;20107;-87
2022/09/08 05:54:40;;;;;;;1.48;0.57;;;;;;;;;;5016954;28;20527;-88
2022/09/08 05:57:07;;;;;;;1.50;0.55;;;;;;;;;;5023476;28;20025;-87
2022/09/08 05:59:32;;;;;;;2.13;0.40;;;;;;;;;;5016155;28;20160;-85
2022/09/08 06:01:58;;;;;;;4.32;0.43;;;;;;;;;;5019244;28;20052;-87
2022/09/08 06:04:23;;;;;;;2.60;0.57;;;;;;;;;;5019105;28;20029;-87
2022/09/08 06:06:49;;;;;;;2.10;0.35;;;;;;;;;;5003059;28;20399;-89
2022/09/08 06:09:14;;;;;;;2.63;0.60;;;;;;;;;;5018549;28;20503;-85
2022/09/08 06:11:40;;;;;;;1.40;0.45;;;;;;;;;;5001877;28;20041;-84
2022/09/08 06:14:06;;;;;;;3.65;0.82;;;;;;;;;;5019126;28;20040;-83
2022/09/08 06:16:32;;;;;;;3.08;0.60;;;;;;;;;;5001979;28;20039;-82
2022/09/08 06:18:59;;;;;;;4.35;0.60;;;;;;;;;;5002345;28;20045;-82
2022/09/08 06:21:25;;;;;;;6.35;1.05;;;;;;;;;;4985783;28;20032;-81
2022/09/08 06:23:52;;;;;;;5.45;0.80;;;;;;;;;;5012173;28;20048;-82
2022/09/08 06:26:29;;;;;;;3.92;0.55;;;;;;;;;;5001951;28;20048;-82
2022/09/08 06:29:23;;;;;;;2.67;0.52;;;;;;;;;;5001809;28;20033;-82
2022/09/08 06:32:10;;;;;;;1.98;0.88;;;;;;;;;;5024120;28;20168;-82
2022/09/08 06:34:40;;;;;;;3.17;0.52;;;;;;;;;;4998025;28;20523;-82
2022/09/08 06:37:08;;;;;;;2.97;0.40;;;;;;;;;;4981857;28;20038;-81
2022/09/08 06:39:38;;;;;;;2.13;0.55;;;;;;;;;;4997563;28;20044;-82
2022/09/08 06:42:17;;;;;;;1.83;0.47;;;;;;;;;;5013705;28;20042;-82
2022/09/08 06:44:44;;;;;;;1.63;0.30;;;;;;;;;;5014063;28;20500;-82
2022/09/08 06:47:18;;;;;;;2.05;0.43;;;;;;;;;;4997866;28;20033;-82
2022/09/08 06:49:44;;;;;;;2.25;0.85;;;;;;;;;;5014394;28;20049;-82
2022/09/08 06:52:26;;;;;;;1.88;0.50;;;;;;;;;;5013653;28;20045;-82
2022/09/08 06:54:55;;;;;;;1.75;0.40;;;;;;;;;;4997706;28;20036;-82
2022/09/08 06:57:39;;;;;;;3.20;0.30;;;;;;;;;;4981598;28;20029;-82
2022/09/08 07:00:24;;;;;;;2.13;0.80;;;;;;;;;;5014299;28;20052;-82
2022/09/08 07:03:03;;;;;;;20.23;10.52;;;;;;;;;;5022967;28;20083;-82
2022/09/08 07:05:56;;;;;;;29.75;15.45;;;;;;;;;;4997666;28;20551;-82
2022/09/08 07:08:47;;;;;;;18.52;9.93;;;;;;;;;;5015028;28;20038;-83
2022/09/08 07:11:31;;;;;;;8.50;4.20;;;;;;;;;;4993822;28;20397;-82
2022/09/08 07:13:59;;;;;;;13.07;5.68;;;;;;;;;;5050496;28;20049;-82
2022/09/08 07:16:41;;;;;;;10.65;4.78;;;;;;;;;;5050343;28;20105;-83
2022/09/08 07:19:31;;;;;;;6.28;2.92;;;;;;;;;;5033704;28;20155;-83
2022/09/08 07:22:31;;;;;;;4.35;1.73;;;;;;;;;;4998226;28;20041;-83
2022/09/08 07:25:19;;;;;;;3.42;1.40;;;;;;;;;;5030783;28;20160;-82
2022/09/08 07:27:47;;;;;;;4.20;1.65;;;;;;;;;;4997319;28;20037;-83
2022/09/08 07:30:15;;;;;;;3.70;1.50;;;;;;;;;;4980959;28;20041;-83
2022/09/08 07:32:40;;;;;;;3.30;1.00;;;;;;;;;;5013906;28;20164;-83
2022/09/08 07:35:32;;;;;;;3.30;1.25;;;;;;;;;;5015928;28;20045;-83
2022/09/08 07:38:45;;;;;;;3.80;1.13;;;;;;;;;;5015872;28;20043;-83
2022/09/08 07:41:34;;;;;;;;;;;;;;;;;;5016815;28;20520;-83
2022/09/08 07:44:20;;;;;;;2.70;1.13;;;;;;;;;;5030207;28;20272;-82
2022/09/08 07:47:36;;;;;;;2.13;0.80;;;;;;;;;;5016012;28;20498;-83
2022/09/08 07:50:53;;;;;;;2.80;1.33;;;;;;;;;;5031680;28;20083;-83
2022/09/08 07:53:49;;;;;;;3.15;0.85;;;;;;;;;;5029859;28;20095;-83
2022/09/08 07:56:56;;;;;;;1.55;0.40;;;;;;;;;;5017196;28;20500;-83
2022/09/08 07:59:52;;;;;;;1.75;0.68;;;;;;;;;;5028508;28;20419;-83
2022/09/08 08:03:00;;;;;;;3.10;0.80;;;;;;;;;;5030014;28;20052;-83
2022/09/08 08:05:58;;;;;;;2.40;0.52;;;;;;;;;;5029206;28;20037;-83
2022/09/08 08:09:16;;;;;;;2.30;0.50;;;;;;;;;;5028189;28;20091;-83
2022/09/08 08:12:21;;;;;;;1.27;0.40;;;;;;;;;;5016766;28;20045;-83
2022/09/08 08:15:16;;;;;;;1.90;0.63;;;;;;;;;;5020853;28;20073;-86
2022/09/08 08:18:04;;;;;;;3.83;0.52;;;;;;;;;;5019651;28;20109;-87
2022/09/08 08:21:15;;;;;;;3.20;0.75;;;;;;;;;;5020128;28;20029;-85
2022/09/08 08:24:26;;;;;;;5.30;0.90;;;;;;;;;;5020039;28;20041;-83
2022/09/08 08:27:41;;;;;;;2.55;0.77;;;;;;;;;;5021918;28;20507;-88
2022/09/08 08:30:28;;;;;;;3.83;0.50;;;;;;;;;;5021305;28;20048;-86
2022/09/08 08:33:22;;;;;;;16.30;10.00;;;;;;;;;;5007255;28;20065;-85
2022/09/08 08:36:12;;;;;;;27.70;21.95;;;;;;;;;;5007475;28;20037;-87
2022/09/08 08:39:33;;;;;;;44.25;28.85;;;;;;;;;;5007549;28;20033;-86
2022/09/08 08:42:49;;;;;;;20.83;13.15;;;;;;;;;;5025409;28;20045;-87
2022/09/08 08:45:56;;;;;;;13.15;7.88;;;;;;;;;;5012007;28;20045;-87
2022/09/08 08:48:58;;;;;;;12.65;7.75;;;;;;;;;;5020188;28;20037;-87
2022/09/08 08:52:22;;;;;;;6.47;4.40;;;;;;;;;;5009698;28;20076;-87
2022/09/08 08:59:13;;;;;;;5.68;2.60;;;;;;;;;;5028530;28;20078;-88
2022/09/08 09:02:14;;;;;;;3.20;1.00;;;;;;;;;;5020488;28;20042;-88
2022/09/08 09:05:14;;;;;;;5.03;0.95;;;;;;;;;;5033485;28;20095;-89
2022/09/08 09:08:03;;;;;;;4.03;0.77;;;;;;;;;;5020859;28;20131;-88
2022/09/08 09:10:49;;;;;;;5.18;0.60;;;;;;;;;;5019860;28;20124;-87
2022/09/08 09:13:59;;;;;;;4.18;0.65;;;;;;;;;;5020161;28;20134;-87
2022/09/08 09:16:49;;;;;;;1.48;0.50;;;;;;;;;;5019490;28;20033;-88
2022/09/08 09:20:15;;;;;;;5.35;0.47;;;;;;;;;;5020895;28;20100;-87
2022/09/08 09:23:03;;;;;;;1.15;0.30;;;;;;;;;;4993036;28;20065;-88
2022/09/08 09:26:00;;;;;;;3.22;0.70;;;;;;;;;;4992402;28;20509;-88
2022/09/08 09:29:21;;;;;;;2.08;0.35;;;;;;;;;;4992793;28;20167;-87
2022/09/08 09:32:29;;;;;;;4.65;1.08;;;;;;;;;;5019423;28;20434;-88
2022/09/08 09:35:20;;;;;;;1.85;0.50;;;;;;;;;;5018819;28;20057;-88
2022/09/08 09:38:28;;;;;;;3.13;0.47;;;;;;;;;;5032586;28;20037;-87
2022/09/08 09:41:47;;;;;;;4.10;0.80;;;;;;;;;;5032619;28;20041;-88
2022/09/08 09:44:48;;;;;;;5.47;0.80;;;;;;;;;;5032456;28;20504;-87
2022/09/08 09:48:00;;;;;;;6.53;3.50;;;;;;;;;;5034198;28;20041;-88
2022/09/08 09:51:23;;;;;;;10.00;6.43;;;;;;;;;;5028688;28;20415;-88
2022/09/08 09:54:14;;;;;;;;;;;;;;;;;;5054270;28;20033;-88
2022/09/08 09:57:47;;;;;;;22.13;13.10;;;;;;;;;;5051906;28;19986;-88
2022/09/08 10:00:50;;;;;;;12.02;5.97;;;;;;;;;;5037902;28;20040;-88
2022/09/08 10:03:43;;;;;;;;;;;;;;;;;;5051985;28;20040;-89
2022/09/08 10:06:49;;;;;;;7.60;3.83;;;;;;;;;;5045305;28;19923;-88
2022/09/08 10:10:20;;;;;;;6.18;1.90;;;;;;;;;;5036081;28;20040;-89
2022/09/08 10:13:11;;;;;;;3.30;0.90;;;;;;;;;;5038469;28;20052;-86
2022/09/08 10:16:36;;;;;;;3.80;1.20;;;;;;;;;;5036176;28;20045;-85
2022/09/08 10:19:45;;;;;;;4.88;0.95;;;;;;;;;;5052023;28;20454;-84
2022/09/08 10:22:52;;;;;;;2.95;0.90;;;;;;;;;;5038818;28;20052;-85
2022/09/08 10:25:53;;;;;;;5.18;0.82;;;;;;;;;;5040228;28;20041;-87
2022/09/08 10:29:09;;;;;;;4.63;1.40;;;;;;;;;;5039943;28;20043;-86
2022/09/08 10:32:13;;;;;;;2.35;1.13;;;;;;;;;;5016037;28;20036;-86
2022/09/08 10:35:26;;;;;;;3.38;0.88;;;;;;;;;;5038216;28;20072;-86
2022/09/08 10:38:27;;;;;;;3.13;1.05;;;;;;;;;;5032993;28;20037;-87
2022/09/08 10:41:42;;;;;;;3.53;1.20;;;;;;;;;;5034537;28;20055;-86
2022/09/08 10:44:49;;;;;;;4.65;0.80;;;;;;;;;;5006616;28;20442;-86
2022/09/08 10:48:16;;;;;;;2.22;0.80;;;;;;;;;;5047239;28;20084;-86
2022/09/08 10:51:41;;;;;;;2.95;1.10;;;;;;;;;;5030808;28;20160;-88
2022/09/08 10:55:06;;;;;;;4.35;0.88;;;;;;;;;;5026290;28;20163;-88
2022/09/08 10:58:29;;;;;;;3.10;0.45;;;;;;;;;;5051668;28;20518;-87
2022/09/08 11:01:26;;;;;;;;;;;;;;;;;;5030669;28;20045;-87
2022/09/08 11:04:30;;;;;;;3.42;0.35;;;;;;;;;;5036807;28;19962;-84
2022/09/08 11:07:46;;;;;;;2.65;0.73;;;;;;;;;;5038498;28;20060;-85
2022/09/08 11:10:43;;;;;;;1.88;0.50;;;;;;;;;;5039958;28;20451;-84
2022/09/08 11:13:46;;;;;;;3.13;0.98;;;;;;;;;;5039782;28;20045;-85
2022/09/08 11:17:13;;;;;;;8.98;1.10;;;;;;;;;;5031280;28;20045;-84
2022/09/08 11:20:02;;;;;;;6.57;0.70;;;;;;;;;;5045057;28;20037;-86
2022/09/08 11:23:17;;;;;;;3.72;0.50;;;;;;;;;;5033407;28;20469;-86
2022/09/08 11:26:14;;;;;;;4.22;1.92;;;;;;;;;;5022582;28;20089;-86
2022/09/08 11:29:09;;;;;;;4.93;1.95;;;;;;;;;;5049048;28;20499;-86
2022/09/08 11:31:57;;;;;;;5.97;1.17;;;;;;;;;;5036639;28;20037;-86
2022/09/08 11:35:21;;;;;;;3.85;0.70;;;;;;;;;;5057876;28;20033;-86
2022/09/08 11:38:35;;;;;;;2.13;0.63;;;;;;;;;;5036128;28;20561;-86
2022/09/08 11:41:43;;;;;;;3.00;0.60;;;;;;;;;;5036765;28;20033;-85
2022/09/08 11:44:29;;;;;;;4.63;0.90;;;;;;;;;;5036989;28;20037;-86
2022/09/08 11:47:17;;;;;;;3.05;1.02;;;;;;;;;;5052963;28;20036;-86
2022/09/08 11:50:03;;;;;;;2.25;0.60;;;;;;;;;;5044374;28;20041;-87
2022/09/08 11:53:11;;;;;;;3.72;0.60;;;;;;;;;;5039309;28;20119;-86
2022/09/08 11:56:19;;;;;;;2.00;0.55;;;;;;;;;;5036235;28;20052;-83
2022/09/08 11:59:29;;;;;;;4.28;1.00;;;;;;;;;;5036162;28;20029;-86
2022/09/08 12:02:40;;;;;;;3.47;1.42;;;;;;;;;;5037852;28;20670;-86
2022/09/08 12:05:43;;;;;;;4.63;1.70;;;;;;;;;;5039752;28;20064;-86
2022/09/08 12:08:59;;;;;;;5.43;1.95;;;;;;;;;;5037582;28;20400;-86
2022/09/08 12:12:00;;;;;;;6.30;2.53;;;;;;;;;;5042436;28;20052;-85
2022/09/08 12:15:05;;;;;;;6.93;2.53;;;;;;;;;;5035751;28;20052;-86
2022/09/08 12:18:32;;;;;;;7.80;1.75;;;;;;;;;;5038788;28;20116;-85
2022/09/08 12:21:23;;;;;;;6.30;1.65;;;;;;;;;;5028018;28;20094;-88
2022/09/08 12:24:18;;;;;;;4.47;0.80;;;;;;;;;;5034486;28;20029;-87
2022/09/08 12:27:26;;;;;;;2.42;0.98;;;;;;;;;;5052125;28;20029;-86
2022/09/08 12:30:18;;;;;;;5.22;1.20;;;;;;;;;;5055976;28;20045;-86
2022/09/08 12:33:41;;;;;;;5.78;0.98;;;;;;;;;;5042230;28;20036;-85
2022/09/08 12:36:46;;;;;;;4.78;0.70;;;;;;;;;;5057199;28;20029;-84
2022/09/08 12:40:05;;;;;;;4.20;0.65;;;;;;;;;;5041344;28;20029;-85
2022/09/08 12:42:57;;;;;;;3.08;0.88;;;;;;;;;;5041341;28;20064;-84
2022/09/08 12:45:45;;;;;;;6.35;0.85;;;;;;;;;;5042228;28;20040;-84
2022/09/08 12:48:51;;;;;;;2.05;0.68;;;;;;;;;;5055434;28;20048;-87
2022/09/08 12:51:38;;;;;;;3.65;0.70;;;;;;;;;;5041377;28;20087;-84
2022/09/08 12:55:12;;;;;;;4.07;0.47;;;;;;;;;;5027572;28;20095;-85
2022/09/08 12:58:00;;;;;;;3.88;0.63;;;;;;;;;;5011525;28;20067;-83
2022/09/08 13:01:23;;;;;;;3.88;0.57;;;;;;;;;;5011872;28;20033;-84
2022/09/08 13:04:29;;;;;;;2.97;0.60;;;;;;;;;;5028031;28;20045;-84
2022/09/08 13:07:33;;;;;;;4.65;0.70;;;;;;;;;;5040819;28;20119;-84
2022/09/08 13:10:25;;;;;;;3.05;0.70;;;;;;;;;;5052218;28;20041;-85
2022/09/08 13:13:32;;;;;;;2.90;0.85;;;;;;;;;;5025052;28;20128;-86
2022/09/08 13:16:35;;;;;;;2.35;0.73;;;;;;;;;;5053716;28;20098;-86
2022/09/08 13:19:31;;;;;;;3.08;0.85;;;;;;;;;;5039156;28;20037;-86
2022/09/08 13:22:23;;;;;;;21.98;2.25;;;;;;;;;;5025015;28;20047;-87
2022/09/08 13:25:18;;;;;;;18.00;2.17;;;;;;;;;;5039936;28;20040;-87
2022/09/08 13:28:41;;;;;;;5.88;0.70;;;;;;;;;;5024573;28;20499;-85
2022/09/08 13:31:45;;;;;;;3.75;0.60;;;;;;;;;;5052513;28;20033;-84
2022/09/08 13:34:49;;;;;;;2.13;0.38;;;;;;;;;;5040618;28;20126;-84
2022/09/08 13:37:54;;;;;;;4.80;0.90;;;;;;;;;;5051137;28;20025;-85
2022/09/08 13:41:07;;;;;;;2.92;0.55;;;;;;;;;;5040067;28;20075;-85
2022/09/08 13:44:24;;;;;;;4.47;0.70;;;;;;;;;;5037858;28;20033;-87
2022/09/08 13:47:49;;;;;;;2.72;0.38;;;;;;;;;;5039746;28;20045;-87
2022/09/08 13:51:00;;;;;;;2.63;0.63;;;;;;;;;;5033069;28;20171;-88
2022/09/08 13:54:10;;;;;;;2.97;0.60;;;;;;;;;;5005144;28;20057;-87
2022/09/08 13:57:25;;;;;;;2.30;0.65;;;;;;;;;;5019313;28;20411;-86
2022/09/08 14:00:14;;;;;;;3.38;0.50;;;;;;;;;;5021169;28;20049;-85
2022/09/08 14:03:06;;;;;;;1.65;0.57;;;;;;;;;;4991772;28;20073;-86
2022/09/08 14:05:52;;;;;;;3.40;0.80;;;;;;;;;;5005463;28;20045;-86
2022/09/08 14:08:45;;;;;;;2.85;0.50;;;;;;;;;;4992043;28;20048;-86
2022/09/08 14:11:45;;;;;;;2.97;0.50;;;;;;;;;;4992195;28;20049;-85
2022/09/08 14:14:35;;;;;;;1.45;0.40;;;;;;;;;;5019740;28;20052;-86
2022/09/08 14:17:45;;;;;;;1.73;0.30;;;;;;;;;;5031841;28;20172;-85
2022/09/08 14:20:46;;;;;;;1.60;0.30;;;;;;;;;;5018332;28;20033;-84
2022/09/08 14:23:44;;;;;;;2.15;0.40;;;;;;;;;;5043294;28;20033;-87
2022/09/08 14:26:39;;;;;;;1.50;0.55;;;;;;;;;;5051959;28;20029;-86
2022/09/08 14:29:31;;;;;;;2.55;0.57;;;;;;;;;;5036800;28;20078;-85
2022/09/08 14:32:40;;;;;;;3.35;0.40;;;;;;;;;;5050628;28;20045;-86
2022/09/08 14:35:44;;;;;;;2.53;0.60;;;;;;;;;;5038263;28;20514;-86
2022/09/08 14:38:33;;;;;;;4.82;0.93;;;;;;;;;;5031484;28;20126;-84
2022/09/08 14:41:23;;;;;;;1.85;0.40;;;;;;;;;;5049739;28;20048;-86
2022/09/08 14:44:18;;;;;;;2.33;0.35;;;;;;;;;;5050911;28;20045;-87
2022/09/08 14:47:21;;;;;;;2.97;0.40;;;;;;;;;;5025086;28;20072;-86
2022/09/08 14:50:07;;;;;;;;;;;;;;;;;;5004543;28;20038;-86
2022/09/08 14:53:09;;;;;;;3.15;0.60;;;;;;;;;;5016516;28;19944;-87
2022/09/08 14:56:23;;;;;;;3.28;0.45;;;;;;;;;;5016395;28;20047;-86
2022/09/08 14:59:21;;;;;;;2.80;0.40;;;;;;;;;;5017577;28;20036;-86
2022/09/08 15:02:09;;;;;;;3.10;0.55;;;;;;;;;;5015953;28;20139;-86
2022/09/08 15:05:24;;;;;;;4.43;1.10;;;;;;;;;;5015727;28;20068;-86
2022/09/08 15:08:16;;;;;;;4.00;0.50;;;;;;;;;;5017201;28;20416;-86
2022/09/08 15:11:40;;;;;;;2.63;0.63;;;;;;;;;;5016544;28;20500;-86
2022/09/08 15:14:30;;;;;;;4.40;1.17;;;;;;;;;;4957215;28;20540;-86
2022/09/08 15:17:25;;;;;;;3.35;0.70;;;;;;;;;;4957923;28;20081;-86
2022/09/08 15:20:35;;;;;;;2.20;0.75;;;;;;;;;;5003145;28;20042;-86
2022/09/08 15:23:34;;;;;;;1.60;0.50;;;;;;;;;;5015743;28;20046;-86
2022/09/08 15:26:53;;;;;;;2.35;0.80;;;;;;;;;;5018668;28;20041;-86
2022/09/08 15:29:43;;;;;;;2.65;0.80;;;;;;;;;;5016639;28;20039;-86
2022/09/08 15:33:00;;;;;;;3.30;1.15;;;;;;;;;;5017979;28;20041;-86
2022/09/08 15:35:57;;;;;;;3.90;1.00;;;;;;;;;;5015503;28;20107;-82
2022/09/08 15:38:58;;;;;;;7.00;1.52;;;;;;;;;;5009457;28;20037;-85
2022/09/08 15:42:14;;;;;;;5.88;1.60;;;;;;;;;;5017204;28;20103;-84
2022/09/08 15:45:16;;;;;;;12.13;2.28;;;;;;;;;;5021590;28;20045;-82
2022/09/08 15:48:08;;;;;;;9.30;2.17;;;;;;;;;;5035960;28;20115;-84
2022/09/08 15:51:02;;;;;;;11.13;2.08;;;;;;;;;;5057064;28;20029;-83
2022/09/08 15:54:09;;;;;;;8.95;2.42;;;;;;;;;;5029151;28;20132;-80
2022/09/08 15:57:17;;;;;;;8.70;2.17;;;;;;;;;;5021498;28;20403;-86
2022/09/08 16:00:21;;;;;;;8.43;1.50;;;;;;;;;;5045874;28;20503;-85
2022/09/08 16:03:09;;;;;;;6.03;2.08;;;;;;;;;;5036689;28;20037;-85
2022/09/08 16:05:55;;;;;;;13.45;2.60;;;;;;;;;;5023405;28;20041;-87
2022/09/08 16:08:50;;;;;;;9.13;3.08;;;;;;;;;;5022308;28;20162;-86
2022/09/08 16:11:41;;;;;;;9.70;2.97;;;;;;;;;;5050092;28;20052;-83
2022/09/08 16:14:36;;;;;;;14.30;3.17;;;;;;;;;;5036123;28;20427;-85
2022/09/08 16:17:22;;;;;;;11.30;2.50;;;;;;;;;;5035731;28;20037;-85
2022/09/08 16:20:15;;;;;;;11.77;2.92;;;;;;;;;;5022774;28;20044;-86
2022/09/08 16:23:04;;;;;;;12.07;2.25;;;;;;;;;;5034481;28;20056;-83
2022/09/08 16:25:53;;;;;;;14.63;2.33;;;;;;;;;;5023105;28;20487;-87
2022/09/08 16:28:53;;;;;;;9.05;2.30;;;;;;;;;;5023391;28;20032;-86
2022/09/08 16:31:41;;;;;;;17.02;2.75;;;;;;;;;;5022517;28;20043;-85
2022/09/08 16:34:29;;;;;;;11.05;1.88;;;;;;;;;;5037720;28;20045;-85
2022/09/08 16:37:31;;;;;;;4.93;1.45;;;;;;;;;;5026797;28;20512;-85
2022/09/08 16:40:17;;;;;;;31.13;5.05;;;;;;;;;;5028248;28;20140;-83
2022/09/08 16:43:14;;;;;;;11.93;2.35;;;;;;;;;;5039288;28;20045;-83
2022/09/08 16:46:20;;;;;;;13.27;2.35;;;;;;;;;;5025105;28;20132;-83